Time;durP1;ratioP1;P1;durP2;ratioP2;P2;SDS_P1;SDS_P2;PMS_P1;PMS_P2;Temp;Humidity;BMP_temperature;BMP_pressure;BME280_temperature;BME280_humidity;BME280_pressure;Samples;Min_cycle;Max_cycle;Signal;HPM_P1;HPM_P2
2023/05/07 00:01:11;;;;;;;6.97;5.30;;;;;;;13.14;100.00;101455.63;4987676;28;20113;-64
2023/05/07 00:03:36;;;;;;;5.93;5.43;;;;;;;13.14;100.00;101452.13;4988857;28;20410;-64
2023/05/07 00:06:01;;;;;;;6.00;5.60;;;;;;;13.13;100.00;101452.97;4983277;28;20081;-64
2023/05/07 00:08:27;;;;;;;6.55;5.97;;;;;;;13.14;100.00;101457.31;4980861;28;20030;-64
2023/05/07 00:10:52;;;;;;;7.78;6.82;;;;;;;13.13;100.00;101455.56;4987130;28;20030;-64
2023/05/07 00:13:17;;;;;;;6.53;5.93;;;;;;;13.12;100.00;101457.28;4976777;28;20030;-64
2023/05/07 00:15:42;;;;;;;6.65;6.15;;;;;;;13.14;100.00;101449.50;4973973;28;20049;-64
2023/05/07 00:18:08;;;;;;;7.20;6.60;;;;;;;13.14;100.00;101446.91;4976644;28;20038;-64
2023/05/07 00:20:33;;;;;;;8.13;7.32;;;;;;;13.14;100.00;101450.41;4986868;28;20097;-64
2023/05/07 00:22:58;;;;;;;7.65;6.95;;;;;;;13.15;100.00;101446.97;4987862;28;20040;-65
2023/05/07 00:25:24;;;;;;;8.40;7.60;;;;;;;13.16;100.00;101442.63;4987442;28;20032;-64
2023/05/07 00:27:49;;;;;;;7.70;7.00;;;;;;;13.17;100.00;101442.69;4988094;28;20502;-64
2023/05/07 00:30:14;;;;;;;8.43;7.50;;;;;;;13.18;100.00;101435.78;4987623;28;20030;-64
2023/05/07 00:32:40;;;;;;;9.27;8.32;;;;;;;13.17;100.00;101445.28;4987972;28;20161;-64
2023/05/07 00:35:06;;;;;;;9.57;8.60;;;;;;;13.19;100.00;101434.91;4987230;28;20026;-64
2023/05/07 00:37:31;;;;;;;9.50;8.10;;;;;;;13.18;100.00;101441.88;4987293;28;20061;-64
2023/05/07 00:39:57;;;;;;;9.38;8.48;;;;;;;13.19;100.00;101429.72;4987161;28;20030;-64
2023/05/07 00:42:22;;;;;;;10.18;9.20;;;;;;;13.18;100.00;101436.66;4975959;28;20182;-64
2023/05/07 00:44:47;;;;;;;10.00;9.10;;;;;;;13.18;100.00;101431.47;4970898;28;20023;-64
2023/05/07 00:47:14;;;;;;;10.90;8.75;;;;;;;13.18;100.00;101425.38;4979827;28;20034;-64
2023/05/07 00:49:41;;;;;;;10.40;9.40;;;;;;;13.19;100.00;101425.41;4987606;28;20030;-64
2023/05/07 00:52:12;;;;;;;10.40;9.35;;;;;;;13.18;100.00;101421.06;4988560;28;20093;-64
2023/05/07 00:54:38;;;;;;;;;;;;;;;13.18;100.00;101418.44;4988784;28;20105;-64
2023/05/07 00:57:04;;;;;;;10.48;9.43;;;;;;;13.20;100.00;101415.88;4988722;28;20020;-64
2023/05/07 00:59:31;;;;;;;10.77;9.73;;;;;;;13.20;100.00;101421.09;4970468;28;20023;-64
2023/05/07 01:01:56;;;;;;;11.18;10.18;;;;;;;13.19;100.00;101425.41;4968933;28;20031;-64
2023/05/07 01:04:22;;;;;;;11.10;10.05;;;;;;;13.18;100.00;101426.25;4985405;28;20437;-64
2023/05/07 01:06:47;;;;;;;10.77;9.77;;;;;;;13.19;100.00;101428.00;4976998;28;20035;-64
2023/05/07 01:09:13;;;;;;;11.32;10.43;;;;;;;13.19;100.00;101428.00;4981426;28;20122;-64
2023/05/07 01:11:39;;;;;;;11.32;10.20;;;;;;;13.19;100.00;101427.13;4980397;28;20030;-64
2023/05/07 01:14:05;;;;;;;11.82;10.73;;;;;;;13.19;100.00;101421.91;4987909;28;20030;-64
2023/05/07 01:16:31;;;;;;;11.63;10.57;;;;;;;13.18;100.00;101423.66;4958134;28;20531;-64
2023/05/07 01:18:56;;;;;;;12.32;11.18;;;;;;;13.19;100.00;101417.59;4987069;28;20113;-64
2023/05/07 01:21:26;;;;;;;12.15;11.05;;;;;;;13.20;100.00;101424.56;4988010;28;20026;-64
2023/05/07 01:23:52;;;;;;;12.32;11.15;;;;;;;13.21;100.00;101415.03;4987856;28;20463;-64
2023/05/07 01:26:19;;;;;;;11.10;10.00;;;;;;;13.21;100.00;101418.53;4987875;28;20034;-64
2023/05/07 01:28:44;;;;;;;12.20;11.15;;;;;;;13.21;100.00;101410.72;4987221;28;20065;-64
2023/05/07 01:31:12;;;;;;;12.18;10.93;;;;;;;13.23;100.00;101412.47;4987785;28;20113;-64
2023/05/07 01:33:38;;;;;;;12.07;11.00;;;;;;;13.22;100.00;101406.41;4988042;28;20018;-64
2023/05/07 01:36:06;;;;;;;11.35;10.40;;;;;;;13.23;100.00;101396.88;4987652;28;20088;-64
2023/05/07 01:38:32;;;;;;;11.70;10.73;;;;;;;13.23;100.00;101396.88;4980319;28;20034;-64
2023/05/07 01:40:58;;;;;;;12.10;11.15;;;;;;;13.21;100.00;101392.50;4968549;28;20386;-64
2023/05/07 01:43:23;;;;;;;12.48;11.27;;;;;;;13.20;100.00;101393.31;4968096;28;20069;-64
2023/05/07 01:45:49;;;;;;;12.13;10.90;;;;;;;13.20;100.00;101393.31;4981251;28;20479;-64
2023/05/07 01:48:15;;;;;;;13.18;11.60;;;;;;;13.19;100.00;101391.56;4989736;28;20029;-64
2023/05/07 01:50:42;;;;;;;12.68;11.60;;;;;;;13.17;100.00;101393.25;4991194;28;20408;-64
2023/05/07 01:53:07;;;;;;;14.23;11.85;;;;;;;13.17;100.00;101390.66;4990838;28;20054;-64
2023/05/07 01:55:33;;;;;;;12.82;11.73;;;;;;;13.16;100.00;101396.69;4990857;28;20494;-65
2023/05/07 01:57:58;;;;;;;12.45;11.35;;;;;;;13.16;100.00;101395.81;4985780;28;20463;-63
2023/05/07 02:00:23;;;;;;;13.57;12.18;;;;;;;13.16;100.00;101393.19;4971762;28;20026;-64
2023/05/07 02:02:49;;;;;;;13.32;12.13;;;;;;;13.14;100.00;101382.75;4976958;28;20360;-64
2023/05/07 02:05:15;;;;;;;12.98;11.70;;;;;;;13.15;100.00;101389.72;4991290;28;20030;-64
2023/05/07 02:07:40;;;;;;;13.70;12.60;;;;;;;13.15;100.00;101389.72;4991060;28;20431;-64
2023/05/07 02:10:06;;;;;;;13.38;12.20;;;;;;;13.14;100.00;101382.75;4990414;28;20477;-64
2023/05/07 02:12:31;;;;;;;13.27;12.10;;;;;;;13.14;100.00;101393.16;4990486;28;20032;-64
2023/05/07 02:14:56;;;;;;;14.30;12.90;;;;;;;13.12;100.00;101384.41;4978355;28;20047;-64
2023/05/07 02:17:22;;;;;;;14.13;12.75;;;;;;;13.11;100.00;101382.66;4990253;28;20121;-64
2023/05/07 02:19:47;;;;;;;14.70;13.38;;;;;;;13.11;100.00;101380.06;4990088;28;20026;-64
2023/05/07 02:22:12;;;;;;;15.10;13.73;;;;;;;13.12;100.00;101391.34;4990256;28;20026;-64
2023/05/07 02:24:38;;;;;;;14.80;13.40;;;;;;;13.10;100.00;101396.50;4990303;28;20030;-64
2023/05/07 02:27:03;;;;;;;15.85;14.40;;;;;;;13.08;100.00;101392.97;4990144;28;20030;-64
2023/05/07 02:29:29;;;;;;;15.23;13.65;;;;;;;13.09;100.00;101386.94;4989873;28;20026;-64
2023/05/07 02:31:55;;;;;;;15.77;14.38;;;;;;;13.08;100.00;101392.97;4990090;28;20023;-64
2023/05/07 02:34:21;;;;;;;16.83;15.27;;;;;;;13.06;100.00;101390.31;4989888;28;20023;-64
2023/05/07 02:36:46;;;;;;;14.98;13.48;;;;;;;13.05;100.00;101393.78;4977791;28;20263;-64
2023/05/07 02:39:16;;;;;;;15.60;14.20;;;;;;;13.04;100.00;101398.94;4972508;28;20034;-64
2023/05/07 02:41:42;;;;;;;15.80;14.40;;;;;;;13.02;100.00;101398.00;4990060;28;20034;-64
2023/05/07 02:44:07;;;;;;;17.73;15.98;;;;;;;13.02;100.00;101392.78;4978001;28;20034;-64
2023/05/07 02:46:33;;;;;;;16.40;14.65;;;;;;;13.01;100.00;101391.00;4989098;28;20108;-64
2023/05/07 02:48:58;;;;;;;18.10;16.60;;;;;;;13.01;100.00;101398.81;4980321;28;20073;-64
2023/05/07 02:51:23;;;;;;;16.42;15.02;;;;;;;13.02;100.00;101398.00;4970677;28;20047;-65
2023/05/07 02:53:49;;;;;;;18.25;16.60;;;;;;;13.01;100.00;101397.09;4981351;28;20034;-64
2023/05/07 02:56:14;;;;;;;17.33;15.82;;;;;;;13.02;100.00;101403.19;4989103;28;20023;-64
2023/05/07 02:58:40;;;;;;;17.17;15.60;;;;;;;13.01;100.00;101396.22;4989474;28;20033;-64
2023/05/07 03:01:06;;;;;;;17.55;16.10;;;;;;;13.00;100.00;101397.94;4989599;28;20054;-64
2023/05/07 03:03:31;;;;;;;17.45;15.85;;;;;;;13.00;100.00;101402.25;4989949;28;20371;-64
2023/05/07 03:05:57;;;;;;;17.77;16.27;;;;;;;13.00;100.00;101402.25;4989170;28;20073;-64
2023/05/07 03:08:22;;;;;;;19.15;17.48;;;;;;;12.99;100.00;101392.69;4990450;28;20022;-64
2023/05/07 03:10:48;;;;;;;19.38;17.55;;;;;;;12.99;100.00;101395.31;4989383;28;20022;-64
2023/05/07 03:13:13;;;;;;;17.95;16.40;;;;;;;12.99;100.00;101397.91;4989531;28;20109;-64
2023/05/07 03:15:38;;;;;;;21.20;18.33;;;;;;;12.99;100.00;101396.16;4989284;28;20133;-64
2023/05/07 03:18:04;;;;;;;19.73;17.80;;;;;;;13.01;100.00;101396.22;4989227;28;20049;-64
2023/05/07 03:20:29;;;;;;;21.33;19.35;;;;;;;13.02;100.00;101392.78;4988582;28;20068;-64
2023/05/07 03:22:55;;;;;;;21.60;19.67;;;;;;;13.02;100.00;101384.97;4989971;28;20040;-64
2023/05/07 03:25:20;;;;;;;20.88;19.08;;;;;;;13.03;100.00;101392.84;4989189;28;20113;-64
2023/05/07 03:27:45;;;;;;;21.55;19.58;;;;;;;13.04;100.00;101385.91;4988891;28;20029;-64
2023/05/07 03:30:12;;;;;;;21.27;19.58;;;;;;;13.04;100.00;101386.78;4976661;28;20475;-65
2023/05/07 03:32:37;;;;;;;21.98;20.08;;;;;;;13.04;100.00;101389.38;4972220;28;20061;-64
2023/05/07 03:35:03;;;;;;;22.00;20.00;;;;;;;13.04;100.00;101380.72;4988417;28;20030;-64
2023/05/07 03:37:28;;;;;;;22.40;20.30;;;;;;;13.04;100.00;101383.31;4989280;28;20026;-64
2023/05/07 03:39:53;;;;;;;23.00;20.95;;;;;;;13.03;100.00;101384.13;4988199;28;20030;-64
2023/05/07 03:42:19;;;;;;;22.00;19.75;;;;;;;13.03;100.00;101378.94;4988305;28;20034;-64
2023/05/07 03:44:45;;;;;;;22.58;20.45;;;;;;;12.99;100.00;101375.34;4974812;28;20079;-64
2023/05/07 03:47:10;;;;;;;23.40;21.27;;;;;;;13.00;100.00;101377.13;4988229;28;20105;-64
2023/05/07 03:49:35;;;;;;;23.52;21.33;;;;;;;12.97;100.00;101370.09;4991585;28;20181;-64
2023/05/07 03:52:01;;;;;;;24.05;21.77;;;;;;;12.97;100.00;101380.50;4989196;28;20117;-64
2023/05/07 03:54:26;;;;;;;23.80;21.65;;;;;;;12.97;100.00;101379.63;4984604;28;20046;-64
2023/05/07 03:56:51;;;;;;;24.15;21.92;;;;;;;12.96;100.00;101383.97;4988181;28;20042;-64
2023/05/07 03:59:16;;;;;;;22.92;20.73;;;;;;;12.97;100.00;101385.72;4987180;28;20022;-65
2023/05/07 04:01:42;;;;;;;22.48;20.38;;;;;;;12.96;100.00;101386.56;4986452;28;20570;-64
2023/05/07 04:04:07;;;;;;;21.80;20.00;;;;;;;12.94;100.00;101385.63;4986801;28;20029;-64
2023/05/07 04:06:33;;;;;;;24.05;21.88;;;;;;;12.94;100.00;101393.44;4986073;28;20517;-64
2023/05/07 04:08:58;;;;;;;23.35;21.08;;;;;;;12.94;100.00;101400.34;4985437;28;20026;-64
2023/05/07 04:11:24;;;;;;;22.95;20.95;;;;;;;12.92;100.00;101405.50;4986539;28;20542;-64
2023/05/07 04:13:49;;;;;;;23.25;20.70;;;;;;;12.92;100.00;101410.69;4987613;28;20060;-65
2023/05/07 04:16:14;;;;;;;21.85;19.90;;;;;;;12.91;100.00;101408.94;4978518;28;20193;-64
2023/05/07 04:18:40;;;;;;;23.73;21.63;;;;;;;12.90;100.00;101409.78;4968409;28;20015;-64
2023/05/07 04:21:05;;;;;;;23.00;21.08;;;;;;;12.90;100.00;101409.78;4978632;28;20497;-64
2023/05/07 04:23:31;;;;;;;24.02;21.92;;;;;;;12.89;100.00;101410.63;4983814;28;20030;-64
2023/05/07 04:25:57;;;;;;;23.58;21.38;;;;;;;12.90;100.00;101409.78;4977579;28;20361;-65
2023/05/07 04:28:22;;;;;;;24.42;22.33;;;;;;;12.91;100.00;101419.34;4986245;28;20028;-65
2023/05/07 04:30:47;;;;;;;23.75;21.63;;;;;;;12.92;100.00;101418.50;4970402;28;20141;-65
2023/05/07 04:33:14;;;;;;;25.15;22.75;;;;;;;12.93;100.00;101415.06;4986214;28;20089;-64
2023/05/07 04:35:40;;;;;;;25.08;22.65;;;;;;;12.94;100.00;101419.44;4988059;28;20430;-64
2023/05/07 04:38:05;;;;;;;25.17;22.88;;;;;;;12.95;100.00;101415.13;4986815;28;20034;-65
2023/05/07 04:40:30;;;;;;;24.58;22.38;;;;;;;12.94;100.00;101416.84;4986948;28;20026;-65
2023/05/07 04:42:55;;;;;;;27.45;24.90;;;;;;;12.95;100.00;101413.41;4982831;28;20057;-65
2023/05/07 04:45:21;;;;;;;25.95;23.73;;;;;;;12.96;100.00;101415.19;4986489;28;20071;-65
2023/05/07 04:47:46;;;;;;;26.15;23.75;;;;;;;12.97;100.00;101416.94;4990300;28;20033;-64
2023/05/07 04:50:11;;;;;;;27.13;24.63;;;;;;;13.00;100.00;101420.47;4987885;28;20278;-64
2023/05/07 04:52:37;;;;;;;26.52;24.13;;;;;;;13.02;100.00;101416.19;4987300;28;20426;-65
2023/05/07 04:55:02;;;;;;;26.92;24.48;;;;;;;13.02;100.00;101414.50;4988063;28;20031;-64
2023/05/07 04:57:28;;;;;;;26.75;24.35;;;;;;;13.04;100.00;101418.00;4986855;28;20125;-64
2023/05/07 04:59:54;;;;;;;25.52;23.10;;;;;;;13.06;100.00;101420.69;4980115;28;20031;-65
2023/05/07 05:02:19;;;;;;;27.80;25.33;;;;;;;13.06;100.00;101421.53;4982695;28;20136;-64
2023/05/07 05:04:44;;;;;;;27.23;24.75;;;;;;;13.06;100.00;101413.72;4979236;28;20029;-64
2023/05/07 05:07:10;;;;;;;28.13;25.63;;;;;;;13.09;100.00;101426.84;4968196;28;20035;-65
2023/05/07 05:09:35;;;;;;;27.38;24.83;;;;;;;13.09;100.00;101420.75;4976350;28;20034;-64
2023/05/07 05:12:00;;;;;;;26.52;24.23;;;;;;;13.11;100.00;101423.41;4987382;28;20072;-65
2023/05/07 05:14:26;;;;;;;26.95;24.65;;;;;;;13.12;100.00;101426.06;4987557;28;20054;-64
2023/05/07 05:16:51;;;;;;;27.98;25.33;;;;;;;13.15;100.00;101436.53;4974236;28;20031;-65
2023/05/07 05:19:16;;;;;;;28.55;25.83;;;;;;;13.15;100.00;101426.13;4979379;28;20030;-64
2023/05/07 05:21:41;;;;;;;27.45;24.95;;;;;;;13.18;100.00;101428.84;4984056;28;20034;-65
2023/05/07 05:24:07;;;;;;;27.65;25.35;;;;;;;13.23;100.00;101433.28;4992189;28;20382;-64
2023/05/07 05:26:32;;;;;;;29.10;26.30;;;;;;;13.26;100.00;101430.81;4990605;28;20713;-64
2023/05/07 05:28:58;;;;;;;28.58;26.05;;;;;;;13.29;100.00;101430.91;4990860;28;20390;-65
2023/05/07 05:31:23;;;;;;;28.45;25.80;;;;;;;13.33;100.00;101435.34;4978939;28;20399;-64
2023/05/07 05:33:48;;;;;;;29.38;26.52;;;;;;;13.36;100.00;101439.78;4975015;28;20348;-65
2023/05/07 05:36:13;;;;;;;28.10;25.70;;;;;;;13.37;100.00;101447.63;4977371;28;20034;-65
2023/05/07 05:38:39;;;;;;;29.00;26.23;;;;;;;13.40;100.00;101445.09;4974692;28;20485;-65
2023/05/07 05:41:05;;;;;;;29.23;26.58;;;;;;;13.42;100.00;101445.19;4987439;28;20026;-64
2023/05/07 05:43:30;;;;;;;29.95;27.45;;;;;;;13.44;100.00;101454.78;4972999;28;20023;-65
2023/05/07 05:45:56;;;;;;;29.85;27.05;;;;;;;13.46;100.00;101441.81;4981563;28;20033;-64
2023/05/07 05:48:22;;;;;;;30.23;27.15;;;;;;;13.49;100.00;101452.28;4985239;28;20045;-65
2023/05/07 05:50:47;;;;;;;30.33;27.38;;;;;;;13.52;100.00;101451.53;4983335;28;20368;-65
2023/05/07 05:53:13;;;;;;;30.23;27.60;;;;;;;13.49;100.00;101452.28;4982788;28;20589;-64
2023/05/07 05:55:38;;;;;;;31.33;28.42;;;;;;;13.53;100.00;101454.19;4984671;28;20096;-65
2023/05/07 05:58:03;;;;;;;31.25;28.45;;;;;;;13.55;100.00;101456.84;4984309;28;20034;-64
2023/05/07 06:00:29;;;;;;;29.92;27.23;;;;;;;13.59;100.00;101447.41;4985956;28;20036;-65
2023/05/07 06:02:55;;;;;;;30.02;27.25;;;;;;;13.63;100.00;101457.97;4978338;28;20061;-64
2023/05/07 06:05:20;;;;;;;30.30;27.45;;;;;;;13.65;100.00;101453.66;4986612;28;20053;-65
2023/05/07 06:07:45;;;;;;;30.30;27.50;;;;;;;13.69;100.00;101452.91;4980819;28;20034;-65
2023/05/07 06:10:11;;;;;;;28.27;25.85;;;;;;;13.74;100.00;101460.88;4975558;28;20066;-65
2023/05/07 06:12:36;;;;;;;28.80;26.27;;;;;;;13.78;100.00;101459.25;4982074;28;20030;-65
2023/05/07 06:15:01;;;;;;;28.85;26.30;;;;;;;13.82;100.00;101458.47;4985488;28;20208;-65
2023/05/07 06:17:27;;;;;;;27.35;24.85;;;;;;;13.86;100.00;101462.94;4982740;28;20157;-65
2023/05/07 06:19:52;;;;;;;28.25;25.85;;;;;;;13.90;100.00;101459.59;4983556;28;20026;-64
2023/05/07 06:22:18;;;;;;;28.98;26.27;;;;;;;13.96;100.00;101458.00;4983710;28;20728;-64
2023/05/07 06:24:43;;;;;;;25.73;23.55;;;;;;;14.00;100.00;101455.50;4984525;28;20119;-64
2023/05/07 06:27:08;;;;;;;27.75;25.30;;;;;;;14.01;100.00;101462.47;4982864;28;20478;-65
2023/05/07 06:29:34;;;;;;;27.98;25.35;;;;;;;14.05;100.00;101460.84;4983751;28;20120;-65
2023/05/07 06:32:10;;;;;;;28.15;25.50;;;;;;;14.10;100.00;101460.97;4982876;28;20022;-64
2023/05/07 06:34:36;;;;;;;27.55;24.92;;;;;;;14.13;100.00;101461.94;4978841;28;20262;-64
2023/05/07 06:37:01;;;;;;;27.35;24.98;;;;;;;14.17;100.00;101458.56;4983072;28;20058;-64
2023/05/07 06:39:26;;;;;;;28.05;25.65;;;;;;;14.21;100.00;101463.88;4981147;28;20059;-64
2023/05/07 06:41:52;;;;;;;26.00;23.75;;;;;;;14.25;100.00;101456.19;4986258;28;20475;-65
2023/05/07 06:44:17;;;;;;;25.13;22.92;;;;;;;14.26;100.00;101457.97;4979757;28;20092;-64
2023/05/07 06:46:42;;;;;;;27.73;25.00;;;;;;;14.28;100.00;101455.38;4988202;28;20385;-65
2023/05/07 06:49:08;;;;;;;26.08;23.67;;;;;;;14.32;100.00;101462.44;4981309;28;20041;-64
2023/05/07 06:51:33;;;;;;;24.52;22.42;;;;;;;14.34;100.00;101470.28;4980199;28;20702;-64
2023/05/07 06:53:58;;;;;;;24.25;22.15;;;;;;;14.35;100.00;101472.06;4981640;28;20065;-64
2023/05/07 06:56:24;;;;;;;25.27;23.08;;;;;;;14.34;100.00;101471.19;4987211;28;20594;-65
2023/05/07 06:58:50;;;;;;;25.10;22.83;;;;;;;14.35;100.00;101472.97;4986669;28;20053;-64
2023/05/07 07:01:15;;;;;;;25.85;23.63;;;;;;;14.38;100.00;101486.06;4987799;28;20069;-65
2023/05/07 07:03:40;;;;;;;25.60;23.30;;;;;;;14.37;100.00;101480.81;4981257;28;20118;-64
2023/05/07 07:06:06;;;;;;;25.65;23.13;;;;;;;14.35;100.00;101482.50;4989013;28;20036;-65
2023/05/07 07:08:31;;;;;;;27.20;24.67;;;;;;;14.34;100.00;101476.38;4981218;28;20050;-64
2023/05/07 07:10:57;;;;;;;27.52;24.65;;;;;;;14.32;100.00;101478.06;4984934;28;20493;-64
2023/05/07 07:13:22;;;;;;;26.92;24.35;;;;;;;14.36;100.00;101490.34;4984539;28;20486;-64
2023/05/07 07:15:47;;;;;;;26.25;23.95;;;;;;;14.37;100.00;101486.88;4979932;28;20050;-64
2023/05/07 07:18:13;;;;;;;25.75;23.45;;;;;;;14.39;100.00;101493.03;4982166;28;20467;-64
2023/05/07 07:20:38;;;;;;;26.55;24.15;;;;;;;14.38;100.00;101488.69;4984263;28;20018;-65
2023/05/07 07:23:04;;;;;;;25.15;22.85;;;;;;;14.39;100.00;101480.00;4983466;28;20056;-64
2023/05/07 07:25:29;;;;;;;27.17;24.55;;;;;;;14.43;100.00;101482.72;4981504;28;20022;-65
2023/05/07 07:27:54;;;;;;;26.88;24.48;;;;;;;14.45;100.00;101475.78;4988594;28;20041;-64
2023/05/07 07:30:20;;;;;;;25.13;22.73;;;;;;;14.46;100.00;101481.06;4979361;28;20034;-64
2023/05/07 07:32:45;;;;;;;26.40;23.98;;;;;;;14.44;100.00;101490.56;4981823;28;20103;-65
2023/05/07 07:35:10;;;;;;;25.23;22.77;;;;;;;14.45;100.00;101483.59;4985648;28;20030;-65
2023/05/07 07:37:36;;;;;;;26.15;23.75;;;;;;;14.49;100.00;101491.56;4966622;28;20085;-65
2023/05/07 07:40:01;;;;;;;25.20;22.80;;;;;;;14.53;100.00;101492.53;4985651;28;20410;-64
2023/05/07 07:42:27;;;;;;;26.05;23.52;;;;;;;14.58;100.00;101496.13;4986898;28;20412;-65
2023/05/07 07:44:52;;;;;;;24.33;22.02;;;;;;;14.63;100.00;101498.84;4967541;28;20058;-65
2023/05/07 07:47:17;;;;;;;25.48;23.10;;;;;;;14.67;100.00;101495.50;4987190;28;20187;-64
2023/05/07 07:49:42;;;;;;;24.40;22.30;;;;;;;14.73;100.00;101500.00;4983788;28;20026;-65
2023/05/07 07:52:08;;;;;;;23.15;21.05;;;;;;;14.80;100.00;101507.13;4972036;28;20183;-65
2023/05/07 07:54:33;;;;;;;23.95;21.80;;;;;;;14.87;100.00;101500.34;4974911;28;20096;-65
2023/05/07 07:56:58;;;;;;;24.02;21.88;;;;;;;14.95;100.00;101500.56;4972980;28;20062;-64
2023/05/07 07:59:24;;;;;;;24.67;22.48;;;;;;;15.04;100.00;101499.91;4981197;28;20463;-65
2023/05/07 08:01:50;;;;;;;23.02;21.00;;;;;;;15.15;100.00;101505.38;4981139;28;20030;-65
2023/05/07 08:04:15;;;;;;;24.75;22.65;;;;;;;15.25;100.00;101508.22;4978406;28;20023;-65
2023/05/07 08:06:41;;;;;;;24.00;21.80;;;;;;;15.32;100.00;101504.03;4969492;28;20034;-65
2023/05/07 08:09:06;;;;;;;24.35;22.27;;;;;;;15.38;100.00;101507.63;4983233;28;20034;-65
2023/05/07 08:11:31;;;;;;;24.92;22.70;;;;;;;15.42;100.00;101494.66;4980706;28;20034;-65
2023/05/07 08:13:56;;;;;;;24.63;22.60;;;;;;;15.54;100.00;101496.66;4980313;28;20038;-64
2023/05/07 08:16:22;;;;;;;24.15;21.83;;;;;;;15.56;100.00;101500.19;4980000;28;20050;-65
2023/05/07 08:18:47;;;;;;;24.23;22.02;;;;;;;15.66;100.00;101505.63;4980432;28;20022;-65
2023/05/07 08:21:13;;;;;;;24.33;22.38;;;;;;;15.78;100.00;101503.25;4978351;28;20389;-65
2023/05/07 08:23:38;;;;;;;22.75;20.80;;;;;;;15.94;100.00;101516.63;4976885;28;20030;-64
2023/05/07 08:26:03;;;;;;;24.50;21.77;;;;;;;16.10;100.00;101517.00;4982030;28;20038;-65
2023/05/07 08:28:29;;;;;;;23.15;20.98;;;;;;;16.18;100.00;101511.06;4978181;28;20027;-65
2023/05/07 08:30:56;;;;;;;21.20;19.02;;;;;;;16.29;100.00;101513.88;4982031;28;20026;-65
2023/05/07 08:33:21;;;;;;;23.23;21.17;;;;;;;16.42;100.00;101514.97;4982995;28;20030;-65
2023/05/07 08:35:47;;;;;;;23.27;21.02;;;;;;;16.50;100.00;101511.63;4980744;28;20084;-65
2023/05/07 08:38:12;;;;;;;22.35;20.55;;;;;;;16.58;100.00;101520.50;4984033;28;20026;-65
2023/05/07 08:40:39;;;;;;;23.33;21.30;;;;;;;16.65;100.00;101521.50;4980208;28;20026;-65
2023/05/07 08:43:07;;;;;;;23.77;21.50;;;;;;;16.67;100.00;101525.03;4980879;28;20027;-65
2023/05/07 08:45:34;;;;;;;25.02;22.65;;;;;;;16.72;100.00;101518.13;4981557;28;20042;-64
2023/05/07 08:48:03;;;;;;;23.33;21.33;;;;;;;16.77;100.00;101519.09;4983537;28;20026;-65
2023/05/07 08:50:28;;;;;;;23.55;21.48;;;;;;;16.83;100.00;101517.41;4983916;28;20169;-64
2023/05/07 08:52:54;;;;;;;24.35;22.05;;;;;;;16.85;100.00;101521.84;4982899;28;20041;-65
2023/05/07 08:55:20;;;;;;;22.85;20.85;;;;;;;16.81;100.00;101517.41;4978738;28;20029;-65
2023/05/07 08:57:46;;;;;;;22.70;20.80;;;;;;;16.85;100.00;101518.34;4985930;28;20022;-65
2023/05/07 09:00:12;;;;;;;23.42;21.42;;;;;;;16.89;100.00;101517.53;4987780;28;20045;-64
2023/05/07 09:02:38;;;;;;;23.75;21.63;;;;;;;16.91;100.00;101521.94;4986267;28;20377;-65
2023/05/07 09:05:03;;;;;;;21.98;20.02;;;;;;;16.75;100.00;101525.13;4989965;28;20225;-65
2023/05/07 09:07:30;;;;;;;23.13;21.05;;;;;;;16.76;100.00;101534.75;4983855;28;20050;-65
2023/05/07 09:09:56;;;;;;;21.38;19.38;;;;;;;16.74;100.00;101520.78;4981130;28;20105;-65
2023/05/07 09:12:22;;;;;;;20.08;18.38;;;;;;;16.81;100.00;101527.88;4987442;28;20038;-65
2023/05/07 09:14:47;;;;;;;21.15;19.00;;;;;;;16.90;100.00;101527.13;4990156;28;20034;-65
2023/05/07 09:17:13;;;;;;;19.80;18.10;;;;;;;16.97;100.00;101523.78;4986346;28;20046;-65
2023/05/07 09:19:38;;;;;;;19.85;18.08;;;;;;;17.00;100.00;101526.44;4990682;28;20038;-65
2023/05/07 09:22:07;;;;;;;19.63;17.92;;;;;;;17.00;100.00;101523.81;4988956;28;20030;-65
2023/05/07 09:24:37;;;;;;;18.95;17.17;;;;;;;17.05;100.00;101524.75;4983944;28;20061;-65
2023/05/07 09:27:06;;;;;;;19.92;18.23;;;;;;;17.13;100.00;101529.28;4980912;28;20034;-65
2023/05/07 09:29:37;;;;;;;18.80;17.20;;;;;;;17.07;100.00;101521.31;4978860;28;20168;-64
2023/05/07 09:32:06;;;;;;;20.10;18.20;;;;;;;17.08;100.00;101525.66;4983103;28;20030;-65
2023/05/07 09:34:31;;;;;;;19.25;17.48;;;;;;;17.16;100.00;101529.34;4990253;28;20372;-65
2023/05/07 09:37:04;;;;;;;20.13;18.25;;;;;;;17.24;100.00;101532.94;4984134;28;20241;-65
2023/05/07 09:39:58;;;;;;;19.95;18.13;;;;;;;17.17;100.00;101523.25;4989492;28;20185;-65
2023/05/07 09:42:26;;;;;;;20.60;18.60;;;;;;;17.28;100.00;101524.28;4987167;28;20074;-65
2023/05/07 09:44:52;;;;;;;20.23;18.27;;;;;;;17.37;100.00;101522.66;4979016;28;20035;-65
2023/05/07 09:47:24;;;;;;;18.70;16.88;;;;;;;17.44;100.00;101526.25;4987165;28;20033;-65
2023/05/07 09:49:49;;;;;;;20.85;18.95;;;;;;;17.50;100.00;101535.06;4989514;28;20076;-65
2023/05/07 09:52:16;;;;;;;20.58;18.80;;;;;;;17.59;100.00;101533.44;4989560;28;20054;-65
2023/05/07 09:54:43;;;;;;;17.92;16.42;;;;;;;17.68;100.00;101520.47;4986242;28;20065;-65
2023/05/07 09:57:11;;;;;;;19.40;17.70;;;;;;;17.82;100.00;101532.88;4989797;28;20034;-65
2023/05/07 09:59:38;;;;;;;18.42;16.73;;;;;;;17.95;100.00;101532.13;4987379;28;20030;-65
2023/05/07 10:02:04;;;;;;;17.30;15.88;;;;;;;18.05;100.00;101538.38;4987916;28;20486;-64
2023/05/07 10:04:30;;;;;;;18.38;16.98;;;;;;;18.11;100.00;101541.06;4984749;28;20410;-65
2023/05/07 10:06:56;;;;;;;18.55;16.85;;;;;;;18.13;100.00;101530.63;4987522;28;20077;-65
2023/05/07 10:09:22;;;;;;;18.90;16.80;;;;;;;18.23;100.00;101536.88;4988722;28;20030;-65
2023/05/07 10:11:49;;;;;;;17.70;16.08;;;;;;;18.30;100.00;101535.19;4980603;28;20310;-64
2023/05/07 10:14:15;;;;;;;19.38;16.63;;;;;;;18.38;100.00;101533.53;4984809;28;20406;-64
2023/05/07 10:16:41;;;;;;;18.05;16.55;;;;;;;18.41;100.00;101533.56;4983275;28;20427;-64
2023/05/07 10:19:09;;;;;;;17.48;15.95;;;;;;;18.43;100.00;101530.97;4984381;28;20038;-65
2023/05/07 10:21:41;;;;;;;16.73;15.23;;;;;;;18.53;100.00;101532.81;4981266;28;20236;-65
2023/05/07 10:24:16;;;;;;;16.13;14.82;;;;;;;18.59;100.00;101535.50;4981519;28;20121;-65
2023/05/07 10:26:48;;;;;;;18.15;16.65;;;;;;;18.56;100.00;101529.34;4983547;28;20096;-65
2023/05/07 10:29:38;;;;;;;16.35;15.02;;;;;;;18.69;100.00;101528.56;4983910;28;20026;-65
2023/05/07 10:32:42;;;;;;;15.43;14.02;;;;;;;18.81;100.00;101529.56;4982708;28;20042;-65
2023/05/07 10:35:16;;;;;;;15.20;13.90;;;;;;;18.95;100.00;101532.28;4953316;28;20554;-65
2023/05/07 10:37:41;;;;;;;14.88;13.57;;;;;;;19.09;100.00;101535.03;4977335;28;20038;-65
2023/05/07 10:40:09;;;;;;;16.10;14.75;;;;;;;19.22;100.00;101530.78;4980475;28;20038;-64
2023/05/07 10:42:35;;;;;;;15.07;13.80;;;;;;;19.38;100.00;101526.50;4981878;28;20753;-65
2023/05/07 10:45:12;;;;;;;15.20;14.00;;;;;;;19.55;100.00;101533.63;4979294;28;20038;-65
2023/05/07 10:48:10;;;;;;;14.70;13.40;;;;;;;19.65;100.00;101531.91;4981208;28;20029;-65
2023/05/07 10:50:39;;;;;;;14.48;13.07;;;;;;;19.68;100.00;101535.41;4978611;28;20034;-65
2023/05/07 10:53:16;;;;;;;14.15;12.95;;;;;;;19.75;100.00;101532.84;4981279;28;20653;-64
2023/05/07 10:55:43;;;;;;;13.77;12.40;;;;;;;19.80;100.00;101528.47;4976077;28;20038;-64
2023/05/07 10:58:28;;;;;;;11.77;10.73;;;;;;;19.87;100.00;101535.50;4980316;28;20072;-65